sensor_id;sensor_type;location;lat;lon;timestamp;P1;durP1;ratioP1;P2;durP2;ratioP2
908;SDS011;441;51.192;6.788;2023-02-12T00:01:10;14.53;;;13.83;;
908;SDS011;441;51.192;6.788;2023-02-12T00:03:38;15.37;;;14.67;;
908;SDS011;441;51.192;6.788;2023-02-12T00:06:06;16.00;;;15.20;;
908;SDS011;441;51.192;6.788;2023-02-12T00:08:33;15.33;;;14.53;;
908;SDS011;441;51.192;6.788;2023-02-12T00:11:05;14.87;;;14.17;;
908;SDS011;441;51.192;6.788;2023-02-12T00:13:33;14.70;;;14.00;;
908;SDS011;441;51.192;6.788;2023-02-12T00:16:02;15.93;;;15.13;;
908;SDS011;441;51.192;6.788;2023-02-12T00:18:31;15.20;;;14.53;;
908;SDS011;441;51.192;6.788;2023-02-12T00:20:58;14.90;;;14.10;;
908;SDS011;441;51.192;6.788;2023-02-12T00:23:26;15.80;;;15.00;;
908;SDS011;441;51.192;6.788;2023-02-12T00:25:52;15.17;;;14.37;;
908;SDS011;441;51.192;6.788;2023-02-12T00:28:19;15.30;;;14.60;;
908;SDS011;441;51.192;6.788;2023-02-12T00:30:48;15.10;;;14.40;;
908;SDS011;441;51.192;6.788;2023-02-12T00:33:14;15.57;;;14.80;;
908;SDS011;441;51.192;6.788;2023-02-12T00:35:43;15.27;;;14.47;;
908;SDS011;441;51.192;6.788;2023-02-12T00:38:10;15.87;;;15.07;;
908;SDS011;441;51.192;6.788;2023-02-12T00:40:36;16.70;;;16.00;;
908;SDS011;441;51.192;6.788;2023-02-12T00:43:03;15.27;;;14.57;;
908;SDS011;441;51.192;6.788;2023-02-12T00:45:31;15.80;;;15.00;;
908;SDS011;441;51.192;6.788;2023-02-12T00:47:57;15.10;;;14.50;;
908;SDS011;441;51.192;6.788;2023-02-12T00:50:24;14.03;;;13.50;;
908;SDS011;441;51.192;6.788;2023-02-12T00:52:52;15.10;;;14.40;;
908;SDS011;441;51.192;6.788;2023-02-12T00:55:19;14.67;;;13.93;;
908;SDS011;441;51.192;6.788;2023-02-12T00:57:46;16.33;;;15.53;;
908;SDS011;441;51.192;6.788;2023-02-12T01:00:14;14.77;;;14.17;;
908;SDS011;441;51.192;6.788;2023-02-12T01:02:41;16.40;;;15.60;;
908;SDS011;441;51.192;6.788;2023-02-12T01:05:08;15.50;;;14.70;;
908;SDS011;441;51.192;6.788;2023-02-12T01:07:35;14.70;;;14.00;;
908;SDS011;441;51.192;6.788;2023-02-12T01:10:04;15.87;;;15.17;;
908;SDS011;441;51.192;6.788;2023-02-12T01:12:32;15.53;;;14.63;;
908;SDS011;441;51.192;6.788;2023-02-12T01:14:59;16.20;;;15.40;;
908;SDS011;441;51.192;6.788;2023-02-12T01:17:26;15.20;;;14.50;;
908;SDS011;441;51.192;6.788;2023-02-12T01:19:55;15.57;;;14.67;;
908;SDS011;441;51.192;6.788;2023-02-12T01:22:23;14.93;;;14.33;;
908;SDS011;441;51.192;6.788;2023-02-12T01:24:50;16.43;;;15.73;;
908;SDS011;441;51.192;6.788;2023-02-12T01:27:18;15.73;;;15.03;;
908;SDS011;441;51.192;6.788;2023-02-12T01:29:45;15.00;;;14.30;;
908;SDS011;441;51.192;6.788;2023-02-12T01:32:11;15.53;;;14.83;;
908;SDS011;441;51.192;6.788;2023-02-12T01:34:38;14.33;;;13.83;;
908;SDS011;441;51.192;6.788;2023-02-12T01:37:05;15.20;;;14.50;;
908;SDS011;441;51.192;6.788;2023-02-12T01:39:32;15.13;;;14.40;;
908;SDS011;441;51.192;6.788;2023-02-12T01:42:00;15.27;;;14.57;;
908;SDS011;441;51.192;6.788;2023-02-12T01:44:29;15.30;;;14.60;;
908;SDS011;441;51.192;6.788;2023-02-12T01:46:57;15.77;;;15.07;;
908;SDS011;441;51.192;6.788;2023-02-12T01:49:25;14.43;;;13.83;;
908;SDS011;441;51.192;6.788;2023-02-12T01:52:00;14.70;;;14.00;;
908;SDS011;441;51.192;6.788;2023-02-12T01:54:32;14.30;;;13.67;;
908;SDS011;441;51.192;6.788;2023-02-12T01:57:00;14.50;;;13.90;;
908;SDS011;441;51.192;6.788;2023-02-12T01:59:30;16.33;;;15.60;;
908;SDS011;441;51.192;6.788;2023-02-12T02:01:58;16.23;;;15.43;;
908;SDS011;441;51.192;6.788;2023-02-12T02:04:26;15.30;;;14.63;;
908;SDS011;441;51.192;6.788;2023-02-12T02:06:57;14.40;;;13.80;;
908;SDS011;441;51.192;6.788;2023-02-12T02:09:27;15.53;;;14.83;;
908;SDS011;441;51.192;6.788;2023-02-12T02:11:56;15.10;;;14.40;;
908;SDS011;441;51.192;6.788;2023-02-12T02:14:41;15.10;;;14.40;;
908;SDS011;441;51.192;6.788;2023-02-12T02:17:19;14.83;;;14.13;;
908;SDS011;441;51.192;6.788;2023-02-12T02:23:19;16.00;;;15.20;;
908;SDS011;441;51.192;6.788;2023-02-12T02:26:07;15.00;;;14.20;;
908;SDS011;441;51.192;6.788;2023-02-12T02:28:59;14.40;;;13.70;;
908;SDS011;441;51.192;6.788;2023-02-12T02:31:45;14.27;;;13.67;;
908;SDS011;441;51.192;6.788;2023-02-12T02:34:16;14.00;;;13.30;;
908;SDS011;441;51.192;6.788;2023-02-12T02:36:50;14.27;;;13.57;;
908;SDS011;441;51.192;6.788;2023-02-12T02:39:24;14.73;;;14.03;;
908;SDS011;441;51.192;6.788;2023-02-12T02:41:56;14.70;;;14.00;;
908;SDS011;441;51.192;6.788;2023-02-12T02:44:27;14.87;;;14.17;;
908;SDS011;441;51.192;6.788;2023-02-12T02:47:04;16.50;;;15.70;;
908;SDS011;441;51.192;6.788;2023-02-12T02:49:36;17.23;;;16.13;;
908;SDS011;441;51.192;6.788;2023-02-12T02:52:08;18.50;;;17.50;;
908;SDS011;441;51.192;6.788;2023-02-12T02:54:40;20.67;;;19.20;;
908;SDS011;441;51.192;6.788;2023-02-12T02:57:11;20.77;;;19.47;;
908;SDS011;441;51.192;6.788;2023-02-12T02:59:41;20.10;;;18.90;;
908;SDS011;441;51.192;6.788;2023-02-12T03:02:13;19.10;;;17.80;;
908;SDS011;441;51.192;6.788;2023-02-12T03:04:45;21.10;;;19.70;;
908;SDS011;441;51.192;6.788;2023-02-12T03:07:15;21.23;;;19.70;;
908;SDS011;441;51.192;6.788;2023-02-12T03:09:48;21.77;;;20.07;;
908;SDS011;441;51.192;6.788;2023-02-12T03:12:18;20.40;;;19.10;;
908;SDS011;441;51.192;6.788;2023-02-12T03:14:49;22.20;;;20.10;;
908;SDS011;441;51.192;6.788;2023-02-12T03:17:25;23.37;;;21.63;;
908;SDS011;441;51.192;6.788;2023-02-12T03:19:57;22.37;;;20.87;;
908;SDS011;441;51.192;6.788;2023-02-12T03:22:29;21.27;;;19.67;;
908;SDS011;441;51.192;6.788;2023-02-12T03:25:00;20.63;;;19.23;;
908;SDS011;441;51.192;6.788;2023-02-12T03:27:34;23.77;;;21.93;;
908;SDS011;441;51.192;6.788;2023-02-12T03:30:04;23.97;;;22.27;;
908;SDS011;441;51.192;6.788;2023-02-12T03:32:36;24.43;;;22.73;;
908;SDS011;441;51.192;6.788;2023-02-12T03:35:12;25.00;;;23.10;;
908;SDS011;441;51.192;6.788;2023-02-12T03:37:44;21.87;;;20.27;;
908;SDS011;441;51.192;6.788;2023-02-12T03:40:18;22.07;;;20.07;;
908;SDS011;441;51.192;6.788;2023-02-12T03:42:51;22.90;;;21.10;;
908;SDS011;441;51.192;6.788;2023-02-12T03:45:26;24.17;;;22.33;;
908;SDS011;441;51.192;6.788;2023-02-12T03:48:07;22.53;;;20.70;;
908;SDS011;441;51.192;6.788;2023-02-12T03:50:41;21.73;;;19.67;;
908;SDS011;441;51.192;6.788;2023-02-12T03:53:12;24.57;;;22.47;;
908;SDS011;441;51.192;6.788;2023-02-12T03:55:40;23.87;;;21.93;;
908;SDS011;441;51.192;6.788;2023-02-12T03:58:12;22.03;;;20.33;;
908;SDS011;441;51.192;6.788;2023-02-12T04:00:44;21.00;;;19.20;;
908;SDS011;441;51.192;6.788;2023-02-12T04:03:12;23.60;;;21.80;;
908;SDS011;441;51.192;6.788;2023-02-12T04:05:39;25.80;;;23.70;;
908;SDS011;441;51.192;6.788;2023-02-12T04:08:06;22.60;;;20.67;;
908;SDS011;441;51.192;6.788;2023-02-12T04:10:37;23.77;;;21.67;;
908;SDS011;441;51.192;6.788;2023-02-12T04:13:15;24.20;;;22.47;;
908;SDS011;441;51.192;6.788;2023-02-12T04:15:50;21.87;;;20.27;;
908;SDS011;441;51.192;6.788;2023-02-12T04:18:33;21.73;;;20.13;;
908;SDS011;441;51.192;6.788;2023-02-12T04:21:08;21.77;;;20.33;;
908;SDS011;441;51.192;6.788;2023-02-12T04:23:46;22.70;;;21.00;;
908;SDS011;441;51.192;6.788;2023-02-12T04:26:17;23.03;;;21.13;;
908;SDS011;441;51.192;6.788;2023-02-12T04:28:51;21.97;;;20.37;;
908;SDS011;441;51.192;6.788;2023-02-12T04:31:30;21.53;;;20.03;;
908;SDS011;441;51.192;6.788;2023-02-12T04:34:06;21.47;;;19.93;;
908;SDS011;441;51.192;6.788;2023-02-12T04:36:39;22.00;;;20.30;;
908;SDS011;441;51.192;6.788;2023-02-12T04:39:11;21.10;;;19.67;;
908;SDS011;441;51.192;6.788;2023-02-12T04:41:43;24.50;;;22.67;;
908;SDS011;441;51.192;6.788;2023-02-12T04:44:16;19.90;;;18.43;;
908;SDS011;441;51.192;6.788;2023-02-12T04:46:44;22.70;;;20.90;;
908;SDS011;441;51.192;6.788;2023-02-12T04:49:14;23.27;;;21.30;;
908;SDS011;441;51.192;6.788;2023-02-12T04:51:42;22.17;;;20.47;;
908;SDS011;441;51.192;6.788;2023-02-12T04:54:10;23.43;;;21.67;;
908;SDS011;441;51.192;6.788;2023-02-12T04:56:37;22.40;;;20.60;;
908;SDS011;441;51.192;6.788;2023-02-12T04:59:04;21.33;;;19.70;;
908;SDS011;441;51.192;6.788;2023-02-12T05:01:32;21.67;;;20.23;;
908;SDS011;441;51.192;6.788;2023-02-12T05:04:00;23.17;;;21.30;;
908;SDS011;441;51.192;6.788;2023-02-12T05:06:28;22.13;;;20.37;;
908;SDS011;441;51.192;6.788;2023-02-12T05:08:55;22.10;;;20.30;;
908;SDS011;441;51.192;6.788;2023-02-12T05:11:22;23.00;;;21.40;;
908;SDS011;441;51.192;6.788;2023-02-12T05:13:49;25.17;;;23.00;;
908;SDS011;441;51.192;6.788;2023-02-12T05:16:17;22.60;;;20.70;;
908;SDS011;441;51.192;6.788;2023-02-12T05:18:45;22.60;;;21.00;;
908;SDS011;441;51.192;6.788;2023-02-12T05:21:12;21.40;;;19.70;;
908;SDS011;441;51.192;6.788;2023-02-12T05:23:41;24.47;;;22.80;;
908;SDS011;441;51.192;6.788;2023-02-12T05:26:10;24.47;;;22.63;;
908;SDS011;441;51.192;6.788;2023-02-12T05:28:40;21.97;;;20.37;;
908;SDS011;441;51.192;6.788;2023-02-12T05:31:07;25.03;;;23.03;;
908;SDS011;441;51.192;6.788;2023-02-12T05:33:36;24.37;;;22.53;;
908;SDS011;441;51.192;6.788;2023-02-12T05:36:03;24.80;;;22.83;;
908;SDS011;441;51.192;6.788;2023-02-12T05:38:31;25.63;;;23.53;;
908;SDS011;441;51.192;6.788;2023-02-12T05:41:03;23.40;;;21.50;;
908;SDS011;441;51.192;6.788;2023-02-12T05:43:30;24.47;;;22.53;;
908;SDS011;441;51.192;6.788;2023-02-12T05:45:58;25.57;;;23.87;;
908;SDS011;441;51.192;6.788;2023-02-12T05:48:25;25.00;;;22.40;;
908;SDS011;441;51.192;6.788;2023-02-12T05:50:52;25.40;;;23.60;;
908;SDS011;441;51.192;6.788;2023-02-12T05:53:19;25.53;;;23.33;;
908;SDS011;441;51.192;6.788;2023-02-12T05:55:45;25.17;;;23.13;;
908;SDS011;441;51.192;6.788;2023-02-12T05:58:14;25.33;;;23.23;;
908;SDS011;441;51.192;6.788;2023-02-12T06:00:40;24.80;;;23.00;;
908;SDS011;441;51.192;6.788;2023-02-12T06:03:07;23.40;;;21.43;;
908;SDS011;441;51.192;6.788;2023-02-12T06:05:34;25.30;;;23.40;;
908;SDS011;441;51.192;6.788;2023-02-12T06:08:01;24.60;;;22.40;;
908;SDS011;441;51.192;6.788;2023-02-12T06:10:28;24.83;;;22.93;;
908;SDS011;441;51.192;6.788;2023-02-12T06:12:55;27.97;;;26.10;;
908;SDS011;441;51.192;6.788;2023-02-12T06:15:23;25.20;;;23.07;;
908;SDS011;441;51.192;6.788;2023-02-12T06:17:50;26.13;;;24.23;;
908;SDS011;441;51.192;6.788;2023-02-12T06:20:16;24.33;;;22.33;;
908;SDS011;441;51.192;6.788;2023-02-12T06:22:43;25.10;;;23.20;;
908;SDS011;441;51.192;6.788;2023-02-12T06:25:10;24.47;;;22.23;;
908;SDS011;441;51.192;6.788;2023-02-12T06:27:37;23.33;;;21.43;;
908;SDS011;441;51.192;6.788;2023-02-12T06:30:04;25.30;;;23.47;;
908;SDS011;441;51.192;6.788;2023-02-12T06:32:33;24.60;;;22.50;;
908;SDS011;441;51.192;6.788;2023-02-12T06:35:00;26.87;;;24.90;;
908;SDS011;441;51.192;6.788;2023-02-12T06:37:27;27.77;;;25.87;;
908;SDS011;441;51.192;6.788;2023-02-12T06:39:53;23.87;;;21.97;;
908;SDS011;441;51.192;6.788;2023-02-12T06:42:20;24.07;;;22.27;;
908;SDS011;441;51.192;6.788;2023-02-12T06:44:47;23.57;;;21.73;;
908;SDS011;441;51.192;6.788;2023-02-12T06:47:14;24.50;;;22.50;;
908;SDS011;441;51.192;6.788;2023-02-12T06:49:42;24.67;;;22.77;;
908;SDS011;441;51.192;6.788;2023-02-12T06:52:09;25.70;;;23.87;;
908;SDS011;441;51.192;6.788;2023-02-12T06:54:35;26.73;;;24.27;;
908;SDS011;441;51.192;6.788;2023-02-12T06:57:03;25.90;;;23.83;;
908;SDS011;441;51.192;6.788;2023-02-12T06:59:30;25.07;;;23.27;;
908;SDS011;441;51.192;6.788;2023-02-12T07:01:57;28.53;;;26.03;;
908;SDS011;441;51.192;6.788;2023-02-12T07:04:23;26.63;;;24.40;;
908;SDS011;441;51.192;6.788;2023-02-12T07:06:51;24.90;;;23.00;;
908;SDS011;441;51.192;6.788;2023-02-12T07:09:18;25.53;;;23.73;;
908;SDS011;441;51.192;6.788;2023-02-12T07:11:45;25.83;;;23.80;;
908;SDS011;441;51.192;6.788;2023-02-12T07:14:12;24.37;;;22.40;;
908;SDS011;441;51.192;6.788;2023-02-12T07:16:40;24.37;;;22.50;;
908;SDS011;441;51.192;6.788;2023-02-12T07:19:08;25.20;;;23.00;;
908;SDS011;441;51.192;6.788;2023-02-12T07:21:36;26.27;;;24.07;;
908;SDS011;441;51.192;6.788;2023-02-12T07:24:05;25.30;;;22.80;;
908;SDS011;441;51.192;6.788;2023-02-12T07:26:35;24.77;;;22.57;;
908;SDS011;441;51.192;6.788;2023-02-12T07:29:03;28.53;;;26.43;;
908;SDS011;441;51.192;6.788;2023-02-12T07:31:30;25.67;;;23.40;;
908;SDS011;441;51.192;6.788;2023-02-12T07:33:58;26.33;;;24.20;;
908;SDS011;441;51.192;6.788;2023-02-12T07:36:26;24.37;;;22.33;;
908;SDS011;441;51.192;6.788;2023-02-12T07:38:54;24.73;;;22.73;;
908;SDS011;441;51.192;6.788;2023-02-12T07:41:25;26.40;;;23.90;;
908;SDS011;441;51.192;6.788;2023-02-12T07:43:56;24.70;;;22.80;;
908;SDS011;441;51.192;6.788;2023-02-12T07:46:26;24.30;;;22.03;;
908;SDS011;441;51.192;6.788;2023-02-12T07:48:57;24.07;;;22.23;;
908;SDS011;441;51.192;6.788;2023-02-12T07:51:30;23.10;;;21.40;;
908;SDS011;441;51.192;6.788;2023-02-12T07:54:04;25.47;;;23.10;;
908;SDS011;441;51.192;6.788;2023-02-12T07:56:37;27.30;;;25.00;;
908;SDS011;441;51.192;6.788;2023-02-12T07:59:08;26.40;;;24.07;;
908;SDS011;441;51.192;6.788;2023-02-12T08:01:42;26.77;;;24.37;;
908;SDS011;441;51.192;6.788;2023-02-12T08:04:17;26.73;;;24.50;;
908;SDS011;441;51.192;6.788;2023-02-12T08:06:46;24.87;;;23.03;;
908;SDS011;441;51.192;6.788;2023-02-12T08:09:16;25.90;;;24.00;;
908;SDS011;441;51.192;6.788;2023-02-12T08:11:46;29.17;;;27.07;;
908;SDS011;441;51.192;6.788;2023-02-12T08:14:14;29.93;;;27.37;;
908;SDS011;441;51.192;6.788;2023-02-12T08:16:43;27.83;;;25.73;;
908;SDS011;441;51.192;6.788;2023-02-12T08:19:10;28.83;;;26.60;;
908;SDS011;441;51.192;6.788;2023-02-12T08:21:38;25.07;;;23.17;;
908;SDS011;441;51.192;6.788;2023-02-12T08:24:05;25.83;;;23.63;;
908;SDS011;441;51.192;6.788;2023-02-12T08:26:33;22.40;;;20.80;;
908;SDS011;441;51.192;6.788;2023-02-12T08:29:03;23.70;;;22.10;;
908;SDS011;441;51.192;6.788;2023-02-12T08:31:32;23.17;;;21.67;;
908;SDS011;441;51.192;6.788;2023-02-12T08:34:01;23.40;;;21.63;;
908;SDS011;441;51.192;6.788;2023-02-12T08:36:30;23.77;;;22.07;;
908;SDS011;441;51.192;6.788;2023-02-12T08:39:00;23.40;;;21.80;;
908;SDS011;441;51.192;6.788;2023-02-12T08:41:28;22.57;;;21.07;;
908;SDS011;441;51.192;6.788;2023-02-12T08:43:56;20.73;;;19.63;;
908;SDS011;441;51.192;6.788;2023-02-12T08:46:27;21.50;;;20.13;;
908;SDS011;441;51.192;6.788;2023-02-12T08:48:58;21.50;;;20.20;;
908;SDS011;441;51.192;6.788;2023-02-12T08:51:27;21.90;;;20.60;;
908;SDS011;441;51.192;6.788;2023-02-12T08:53:56;21.73;;;20.43;;
908;SDS011;441;51.192;6.788;2023-02-12T08:56:24;20.43;;;19.23;;
908;SDS011;441;51.192;6.788;2023-02-12T08:58:52;21.37;;;20.07;;
908;SDS011;441;51.192;6.788;2023-02-12T09:01:20;20.87;;;19.33;;
908;SDS011;441;51.192;6.788;2023-02-12T09:03:49;22.07;;;20.20;;
908;SDS011;441;51.192;6.788;2023-02-12T09:06:17;23.93;;;22.03;;
908;SDS011;441;51.192;6.788;2023-02-12T09:08:46;23.30;;;21.60;;
908;SDS011;441;51.192;6.788;2023-02-12T09:11:14;24.30;;;22.17;;
908;SDS011;441;51.192;6.788;2023-02-12T09:13:43;26.10;;;23.80;;
908;SDS011;441;51.192;6.788;2023-02-12T09:16:10;26.73;;;24.20;;
908;SDS011;441;51.192;6.788;2023-02-12T09:18:38;24.07;;;21.83;;
908;SDS011;441;51.192;6.788;2023-02-12T09:21:07;24.17;;;22.37;;
908;SDS011;441;51.192;6.788;2023-02-12T09:23:36;24.15;;;21.85;;
908;SDS011;441;51.192;6.788;2023-02-12T09:26:04;26.03;;;23.60;;
908;SDS011;441;51.192;6.788;2023-02-12T09:28:31;24.03;;;22.03;;
908;SDS011;441;51.192;6.788;2023-02-12T09:31:03;25.13;;;22.97;;
908;SDS011;441;51.192;6.788;2023-02-12T09:33:30;25.03;;;20.80;;
908;SDS011;441;51.192;6.788;2023-02-12T09:35:59;19.30;;;17.30;;
908;SDS011;441;51.192;6.788;2023-02-12T09:38:29;19.17;;;17.37;;
908;SDS011;441;51.192;6.788;2023-02-12T09:41:04;24.07;;;18.23;;
908;SDS011;441;51.192;6.788;2023-02-12T09:43:43;19.30;;;17.47;;
908;SDS011;441;51.192;6.788;2023-02-12T09:46:18;22.30;;;20.10;;
908;SDS011;441;51.192;6.788;2023-02-12T09:48:52;20.73;;;18.97;;
908;SDS011;441;51.192;6.788;2023-02-12T09:51:26;20.57;;;18.43;;
908;SDS011;441;51.192;6.788;2023-02-12T09:53:59;21.50;;;19.07;;
908;SDS011;441;51.192;6.788;2023-02-12T09:56:28;23.47;;;19.40;;
908;SDS011;441;51.192;6.788;2023-02-12T09:58:57;20.13;;;18.43;;
908;SDS011;441;51.192;6.788;2023-02-12T10:01:27;21.30;;;19.30;;
908;SDS011;441;51.192;6.788;2023-02-12T10:03:54;22.17;;;20.07;;
908;SDS011;441;51.192;6.788;2023-02-12T10:06:23;22.10;;;20.13;;
908;SDS011;441;51.192;6.788;2023-02-12T10:09:04;22.20;;;20.20;;
908;SDS011;441;51.192;6.788;2023-02-12T10:11:52;19.87;;;18.07;;
908;SDS011;441;51.192;6.788;2023-02-12T10:14:27;19.97;;;18.27;;
908;SDS011;441;51.192;6.788;2023-02-12T10:17:26;23.30;;;21.00;;
908;SDS011;441;51.192;6.788;2023-02-12T10:20:02;20.30;;;18.50;;
908;SDS011;441;51.192;6.788;2023-02-12T10:22:49;19.83;;;18.13;;
908;SDS011;441;51.192;6.788;2023-02-12T10:25:27;19.03;;;17.43;;
908;SDS011;441;51.192;6.788;2023-02-12T10:28:01;20.70;;;18.63;;
908;SDS011;441;51.192;6.788;2023-02-12T10:30:36;22.23;;;19.93;;
908;SDS011;441;51.192;6.788;2023-02-12T10:33:10;20.73;;;18.80;;
908;SDS011;441;51.192;6.788;2023-02-12T10:35:42;21.63;;;19.53;;
908;SDS011;441;51.192;6.788;2023-02-12T10:38:12;19.87;;;18.17;;
908;SDS011;441;51.192;6.788;2023-02-12T10:40:45;22.20;;;20.10;;
908;SDS011;441;51.192;6.788;2023-02-12T10:43:14;20.33;;;17.47;;
908;SDS011;441;51.192;6.788;2023-02-12T10:45:41;19.87;;;17.87;;
908;SDS011;441;51.192;6.788;2023-02-12T10:48:10;21.97;;;20.07;;
908;SDS011;441;51.192;6.788;2023-02-12T10:50:42;19.90;;;17.97;;
908;SDS011;441;51.192;6.788;2023-02-12T10:53:19;20.17;;;18.23;;
908;SDS011;441;51.192;6.788;2023-02-12T10:55:49;20.53;;;18.53;;
908;SDS011;441;51.192;6.788;2023-02-12T10:58:29;19.93;;;17.47;;
908;SDS011;441;51.192;6.788;2023-02-12T11:00:56;22.33;;;19.50;;
908;SDS011;441;51.192;6.788;2023-02-12T11:03:27;24.60;;;19.10;;
908;SDS011;441;51.192;6.788;2023-02-12T11:06:07;20.23;;;18.50;;
908;SDS011;441;51.192;6.788;2023-02-12T11:08:37;20.73;;;18.97;;
908;SDS011;441;51.192;6.788;2023-02-12T11:11:07;23.60;;;21.00;;
908;SDS011;441;51.192;6.788;2023-02-12T11:13:37;19.50;;;17.87;;
908;SDS011;441;51.192;6.788;2023-02-12T11:16:06;21.07;;;19.33;;
908;SDS011;441;51.192;6.788;2023-02-12T11:18:34;20.30;;;18.47;;
908;SDS011;441;51.192;6.788;2023-02-12T11:21:02;20.33;;;18.63;;
908;SDS011;441;51.192;6.788;2023-02-12T11:23:32;19.10;;;17.57;;
908;SDS011;441;51.192;6.788;2023-02-12T11:26:01;16.50;;;15.10;;
908;SDS011;441;51.192;6.788;2023-02-12T11:28:32;18.00;;;16.57;;
908;SDS011;441;51.192;6.788;2023-02-12T11:31:00;17.60;;;16.00;;
908;SDS011;441;51.192;6.788;2023-02-12T11:33:29;19.80;;;17.90;;
908;SDS011;441;51.192;6.788;2023-02-12T11:35:59;17.20;;;15.70;;
908;SDS011;441;51.192;6.788;2023-02-12T11:38:30;18.07;;;16.73;;
908;SDS011;441;51.192;6.788;2023-02-12T11:41:01;18.17;;;16.77;;
908;SDS011;441;51.192;6.788;2023-02-12T11:43:33;18.33;;;16.47;;
908;SDS011;441;51.192;6.788;2023-02-12T11:46:03;16.50;;;15.20;;
908;SDS011;441;51.192;6.788;2023-02-12T11:48:32;18.27;;;16.57;;
908;SDS011;441;51.192;6.788;2023-02-12T11:51:03;18.80;;;17.23;;
908;SDS011;441;51.192;6.788;2023-02-12T11:53:34;18.80;;;17.07;;
908;SDS011;441;51.192;6.788;2023-02-12T11:56:03;17.20;;;15.80;;
908;SDS011;441;51.192;6.788;2023-02-12T11:58:31;16.40;;;15.20;;
908;SDS011;441;51.192;6.788;2023-02-12T12:01:02;16.27;;;14.97;;
908;SDS011;441;51.192;6.788;2023-02-12T12:03:33;16.87;;;15.50;;
908;SDS011;441;51.192;6.788;2023-02-12T12:06:06;17.67;;;16.20;;
908;SDS011;441;51.192;6.788;2023-02-12T12:08:42;17.90;;;16.50;;
908;SDS011;441;51.192;6.788;2023-02-12T12:11:14;16.50;;;15.20;;
908;SDS011;441;51.192;6.788;2023-02-12T12:13:47;17.67;;;16.30;;
908;SDS011;441;51.192;6.788;2023-02-12T12:16:19;16.40;;;15.20;;
908;SDS011;441;51.192;6.788;2023-02-12T12:19:11;15.80;;;14.60;;
908;SDS011;441;51.192;6.788;2023-02-12T12:22:15;17.17;;;15.70;;
908;SDS011;441;51.192;6.788;2023-02-12T12:25:04;17.90;;;14.33;;
908;SDS011;441;51.192;6.788;2023-02-12T12:27:39;17.20;;;15.83;;
908;SDS011;441;51.192;6.788;2023-02-12T12:30:47;15.90;;;14.60;;
908;SDS011;441;51.192;6.788;2023-02-12T12:33:25;17.30;;;15.90;;
908;SDS011;441;51.192;6.788;2023-02-12T12:36:01;16.20;;;15.03;;
908;SDS011;441;51.192;6.788;2023-02-12T12:38:49;17.73;;;16.30;;
908;SDS011;441;51.192;6.788;2023-02-12T12:41:26;17.77;;;16.47;;
908;SDS011;441;51.192;6.788;2023-02-12T12:44:08;16.70;;;15.10;;
908;SDS011;441;51.192;6.788;2023-02-12T12:46:52;16.67;;;15.30;;
908;SDS011;441;51.192;6.788;2023-02-12T12:49:37;16.17;;;14.97;;
908;SDS011;441;51.192;6.788;2023-02-12T12:55:11;17.53;;;16.13;;
908;SDS011;441;51.192;6.788;2023-02-12T12:57:50;15.03;;;13.83;;
908;SDS011;441;51.192;6.788;2023-02-12T13:00:27;14.67;;;13.57;;
908;SDS011;441;51.192;6.788;2023-02-12T13:03:20;14.50;;;13.50;;
908;SDS011;441;51.192;6.788;2023-02-12T13:06:12;15.30;;;14.20;;
908;SDS011;441;51.192;6.788;2023-02-12T13:08:56;14.20;;;13.10;;
908;SDS011;441;51.192;6.788;2023-02-12T13:11:41;14.00;;;13.10;;
908;SDS011;441;51.192;6.788;2023-02-12T13:14:23;13.70;;;12.63;;
908;SDS011;441;51.192;6.788;2023-02-12T13:16:57;15.53;;;14.10;;
908;SDS011;441;51.192;6.788;2023-02-12T13:19:34;14.40;;;13.27;;
908;SDS011;441;51.192;6.788;2023-02-12T13:22:10;13.10;;;12.30;;
908;SDS011;441;51.192;6.788;2023-02-12T13:24:46;13.87;;;13.03;;
908;SDS011;441;51.192;6.788;2023-02-12T13:27:17;13.50;;;12.70;;
908;SDS011;441;51.192;6.788;2023-02-12T13:29:47;13.77;;;12.77;;
908;SDS011;441;51.192;6.788;2023-02-12T13:32:20;14.37;;;13.47;;
908;SDS011;441;51.192;6.788;2023-02-12T13:34:52;15.80;;;14.70;;
908;SDS011;441;51.192;6.788;2023-02-12T13:37:23;14.27;;;13.50;;
908;SDS011;441;51.192;6.788;2023-02-12T13:39:59;14.00;;;13.10;;
908;SDS011;441;51.192;6.788;2023-02-12T13:42:35;14.17;;;13.27;;
908;SDS011;441;51.192;6.788;2023-02-12T13:45:13;14.10;;;13.17;;
908;SDS011;441;51.192;6.788;2023-02-12T13:47:52;13.83;;;12.97;;
908;SDS011;441;51.192;6.788;2023-02-12T13:50:33;13.67;;;12.90;;
908;SDS011;441;51.192;6.788;2023-02-12T13:53:07;14.27;;;13.37;;
908;SDS011;441;51.192;6.788;2023-02-12T13:55:48;13.43;;;12.43;;
908;SDS011;441;51.192;6.788;2023-02-12T13:58:39;13.60;;;12.60;;
908;SDS011;441;51.192;6.788;2023-02-12T14:01:33;13.00;;;12.17;;
908;SDS011;441;51.192;6.788;2023-02-12T14:04:20;14.30;;;13.07;;
908;SDS011;441;51.192;6.788;2023-02-12T14:07:00;13.40;;;12.50;;
908;SDS011;441;51.192;6.788;2023-02-12T14:09:35;14.23;;;13.20;;
908;SDS011;441;51.192;6.788;2023-02-12T14:12:04;12.93;;;12.00;;
908;SDS011;441;51.192;6.788;2023-02-12T14:14:35;13.20;;;12.30;;
908;SDS011;441;51.192;6.788;2023-02-12T14:20:05;11.97;;;11.30;;
908;SDS011;441;51.192;6.788;2023-02-12T14:25:28;12.30;;;11.50;;
908;SDS011;441;51.192;6.788;2023-02-12T14:28:19;14.50;;;12.63;;
908;SDS011;441;51.192;6.788;2023-02-12T14:33:50;13.53;;;12.43;;
908;SDS011;441;51.192;6.788;2023-02-12T14:36:19;13.47;;;12.67;;
908;SDS011;441;51.192;6.788;2023-02-12T14:39:25;13.97;;;12.80;;
908;SDS011;441;51.192;6.788;2023-02-12T14:41:53;14.47;;;13.30;;
908;SDS011;441;51.192;6.788;2023-02-12T14:47:11;12.23;;;11.53;;
908;SDS011;441;51.192;6.788;2023-02-12T14:49:53;14.13;;;12.93;;
908;SDS011;441;51.192;6.788;2023-02-12T14:52:23;12.60;;;11.70;;
908;SDS011;441;51.192;6.788;2023-02-12T14:54:54;13.03;;;12.27;;
908;SDS011;441;51.192;6.788;2023-02-12T14:57:23;13.30;;;12.30;;
908;SDS011;441;51.192;6.788;2023-02-12T14:59:52;13.23;;;12.33;;
908;SDS011;441;51.192;6.788;2023-02-12T15:02:22;14.40;;;13.43;;
908;SDS011;441;51.192;6.788;2023-02-12T15:04:50;13.27;;;12.40;;
908;SDS011;441;51.192;6.788;2023-02-12T15:07:22;12.83;;;12.13;;
908;SDS011;441;51.192;6.788;2023-02-12T15:09:57;13.30;;;12.47;;
908;SDS011;441;51.192;6.788;2023-02-12T15:12:32;13.50;;;12.60;;
908;SDS011;441;51.192;6.788;2023-02-12T15:15:03;12.37;;;11.67;;
908;SDS011;441;51.192;6.788;2023-02-12T15:17:38;12.80;;;11.80;;
908;SDS011;441;51.192;6.788;2023-02-12T15:20:08;13.20;;;12.33;;
908;SDS011;441;51.192;6.788;2023-02-12T15:22:44;12.33;;;11.33;;
908;SDS011;441;51.192;6.788;2023-02-12T15:25:16;11.43;;;10.73;;
908;SDS011;441;51.192;6.788;2023-02-12T15:27:48;13.40;;;12.60;;
908;SDS011;441;51.192;6.788;2023-02-12T15:30:17;15.30;;;14.07;;
908;SDS011;441;51.192;6.788;2023-02-12T15:32:46;12.23;;;11.53;;
908;SDS011;441;51.192;6.788;2023-02-12T15:35:18;13.30;;;12.43;;
908;SDS011;441;51.192;6.788;2023-02-12T15:37:48;12.07;;;11.17;;
908;SDS011;441;51.192;6.788;2023-02-12T15:40:18;13.63;;;12.73;;
908;SDS011;441;51.192;6.788;2023-02-12T15:42:50;13.73;;;12.63;;
908;SDS011;441;51.192;6.788;2023-02-12T15:45:20;13.93;;;12.83;;
908;SDS011;441;51.192;6.788;2023-02-12T15:48:03;12.73;;;11.93;;
908;SDS011;441;51.192;6.788;2023-02-12T15:50:43;12.13;;;11.33;;
908;SDS011;441;51.192;6.788;2023-02-12T15:53:13;12.13;;;11.60;;
908;SDS011;441;51.192;6.788;2023-02-12T15:55:42;13.03;;;12.30;;
908;SDS011;441;51.192;6.788;2023-02-12T15:58:17;16.70;;;15.37;;
908;SDS011;441;51.192;6.788;2023-02-12T16:00:47;17.37;;;16.00;;